الصفحة الرئيسية
METAR-TAF:

METAR-TAF

مطار :

مطار روش بينا

روش الصيوان, إسرائيل

دائرة عرض: 32-58-48N, خط طول: 035-34-12E, ارتفاع: 281 متر

مراقبة الطقس الحالي

تاريخ ووقت الإصدار 25 دقيقة قبل الساعة 11:50UTC
ريح 9 عقدة من الشرق, الاتجاه يتراوح بين الشرق/الشمال الشرقي و الجنوب الشرقي
درجة الحرارة 19°درجة مئوية
الرطوبة 46%
ضغط 1021 hPa
الرؤية 10 كم أو أكثر
غيوم قليلة على ارتفاع 4000 قدم

METAR: LLIB 151150Z 10009KT 070V140 9999 FEW040 19/07 Q1021

زمن: 14:15 (12:15 UTC)

توقعات

تاريخ ووقت الإصدار 56 دقيقة قبل الساعة 11:19UTC
التوقعات صالحة من15 الساعة 12 UTC إلى 16 الساعة 12 UTC
ريح 10 عقدة من الجنوب الشرقي
الرؤية 10 كم أو أكثر
غيوم قليلة على ارتفاع 4000 قدم
أصبح
من 15 الساعة 16 UTC إلى 15 الساعة 18 UTC
ريح 5 عقدةمن اتجاهات متغيرة
أصبح
من 16 الساعة 04 UTC إلى 16 الساعة 06 UTC
ريح 10 عقدة من الجنوب الشرقي

TAF: LLIB 151119Z 1512/1612 14010KT 9999 FEW040 BECMG 1516/1518 VRB05KT BECMG 1604/1606 14010KT TX19/1512Z TN12/1604Z

أرصاد الطقس والتوقعات من أكثر من 4000 مطار (تقارير الطقس للمطار METAR والتنبؤ بالطقس بالمطارTAF).

المحطات المتاحة هي النقط الصفراء والحمراء على الخريطة.

حرك المؤشر فوق النقطة لمعرفة اسم المحطة.

ثم انقر لمعرفة أرصاد وتوقعات الطقس.

لتغيير الخارطة: اضغط على الأزرار الخضراء مع رمز الصليب الأسود للتكبير. على الزر الأخضر مع شرطة للتصغير، أو على الأسهم الخضراء للخرائط المجاورة.


METAR-TAF: